Time;durP1;ratioP1;P1;durP2;ratioP2;P2;SDS_P1;SDS_P2;PMS_P1;PMS_P2;Temp;Humidity;BMP_temperature;BMP_pressure;BME280_temperature;BME280_humidity;BME280_pressure;Samples;Min_cycle;Max_cycle;Signal;HPM_P1;HPM_P2
2021/06/04 00:00:07;;;;;;;8.20;7.40;;;19.20;99.90;;;;;;4931762;29;20543;-77
2021/06/04 00:02:33;;;;;;;7.87;7.17;;;19.20;99.90;;;;;;4917033;29;20529;-77
2021/06/04 00:04:58;;;;;;;8.23;7.47;;;19.10;99.90;;;;;;4916516;29;20443;-77
2021/06/04 00:07:24;;;;;;;9.10;8.20;;;19.00;99.90;;;;;;4917139;29;20632;-76
2021/06/04 00:09:50;;;;;;;12.63;8.60;;;19.00;99.90;;;;;;4917071;29;20178;-75
2021/06/04 00:12:15;;;;;;;8.73;7.93;;;19.00;99.90;;;;;;4916976;29;20210;-77
2021/06/04 00:14:43;;;;;;;9.60;8.60;;;18.80;99.90;;;;;;4916730;29;20209;-76
2021/06/04 00:17:20;;;;;;;8.60;7.77;;;18.80;99.90;;;;;;4918455;29;20193;-75
2021/06/04 00:19:46;;;;;;;7.50;6.80;;;18.80;99.90;;;;;;4921013;29;20414;-76
2021/06/04 00:22:16;;;;;;;7.83;7.13;;;18.90;99.90;;;;;;4921026;29;20461;-76
2021/06/04 00:24:44;;;;;;;10.53;8.20;;;18.90;99.90;;;;;;4921067;29;20795;-76
2021/06/04 00:27:12;;;;;;;8.70;7.83;;;19.00;99.90;;;;;;4920664;29;20422;-76
2021/06/04 00:29:38;;;;;;;11.73;9.00;;;18.80;99.90;;;;;;4920831;29;20425;-76
2021/06/04 00:32:05;;;;;;;10.20;9.20;;;18.80;99.90;;;;;;4920853;29;20817;-76
2021/06/04 00:34:31;;;;;;;9.03;8.17;;;18.70;99.90;;;;;;4920265;29;20477;-77
2021/06/04 00:36:57;;;;;;;9.80;8.90;;;18.70;99.90;;;;;;4920638;29;20429;-76
2021/06/04 00:39:27;;;;;;;8.80;8.00;;;18.70;99.90;;;;;;4920461;29;20397;-77
2021/06/04 00:42:03;;;;;;;8.33;7.57;;;18.80;99.90;;;;;;4920746;29;20415;-76
2021/06/04 00:44:29;;;;;;;8.53;7.70;;;18.80;99.90;;;;;;4920203;29;20812;-77
2021/06/04 00:46:55;;;;;;;8.30;7.30;;;18.80;99.90;;;;;;4920517;29;20441;-77
2021/06/04 00:49:23;;;;;;;9.03;8.23;;;18.80;99.90;;;;;;4920449;29;20454;-76
2021/06/04 00:52:00;;;;;;;8.40;7.57;;;18.80;99.90;;;;;;4920630;29;20179;-77
2021/06/04 00:54:28;;;;;;;12.30;8.80;;;18.90;99.90;;;;;;4920031;29;20430;-77
2021/06/04 00:56:54;;;;;;;9.77;8.87;;;18.80;99.90;;;;;;4920258;29;20888;-77
2021/06/04 00:59:28;;;;;;;10.53;9.33;;;18.80;99.90;;;;;;4920089;29;20481;-76
2021/06/04 01:01:55;;;;;;;9.73;8.80;;;18.70;99.90;;;;;;4920370;29;20204;-75
2021/06/04 01:04:25;;;;;;;10.17;9.13;;;18.60;99.90;;;;;;4919615;29;20794;-78
2021/06/04 01:07:00;;;;;;;11.10;10.00;;;18.60;99.90;;;;;;4920211;29;20442;-77
2021/06/04 01:10:10;;;;;;;13.30;11.13;;;18.60;99.90;;;;;;4919808;29;20391;-75
2021/06/04 01:13:07;;;;;;;11.97;10.13;;;18.70;99.90;;;;;;4919987;29;20425;-77
2021/06/04 01:15:56;;;;;;;12.70;11.50;;;18.80;99.90;;;;;;4920152;29;20422;-77
2021/06/04 01:18:49;;;;;;;12.23;11.03;;;18.90;99.90;;;;;;4919879;29;20486;-76
2021/06/04 01:21:29;;;;;;;12.50;11.40;;;18.90;99.90;;;;;;4919845;29;20778;-76
2021/06/04 01:24:08;;;;;;;12.43;11.20;;;18.70;99.90;;;;;;4919428;29;20489;-76
2021/06/04 01:26:53;;;;;;;10.80;9.70;;;18.50;99.90;;;;;;4919788;29;20393;-76
2021/06/04 01:29:19;;;;;;;11.53;10.43;;;18.60;99.90;;;;;;4919561;29;20410;-76
2021/06/04 01:31:58;;;;;;;10.97;9.63;;;18.60;99.90;;;;;;4919663;29;20389;-76
2021/06/04 01:34:50;;;;;;;12.63;11.20;;;18.60;99.90;;;;;;4919333;29;20198;-76
2021/06/04 01:37:26;;;;;;;10.83;9.73;;;18.60;99.90;;;;;;4919697;29;20792;-77
2021/06/04 01:39:59;;;;;;;12.57;11.20;;;18.60;99.90;;;;;;4919743;29;20413;-76
2021/06/04 01:42:31;;;;;;;13.40;12.20;;;18.60;99.90;;;;;;4919630;29;20480;-76
2021/06/04 01:45:03;;;;;;;13.60;12.30;;;18.70;99.90;;;;;;4919060;29;20536;-77
2021/06/04 01:47:38;;;;;;;14.70;12.30;;;18.60;99.90;;;;;;4919298;29;20417;-76
2021/06/04 01:50:12;;;;;;;12.43;10.70;;;18.30;99.90;;;;;;4919382;29;20421;-77
2021/06/04 01:52:39;;;;;;;13.00;11.70;;;18.40;99.90;;;;;;4919341;29;20415;-76
2021/06/04 01:55:16;;;;;;;12.30;11.20;;;18.30;99.90;;;;;;4918929;29;20423;-78
2021/06/04 01:57:51;;;;;;;19.63;10.90;;;18.30;99.90;;;;;;4917825;29;20433;-75
2021/06/04 02:00:43;;;;;;;13.30;12.00;;;17.90;99.90;;;;;;4919154;29;20418;-77
2021/06/04 02:03:12;;;;;;;10.60;9.53;;;17.90;99.90;;;;;;4918585;29;20457;-78
2021/06/04 02:05:40;;;;;;;11.13;10.17;;;18.00;99.90;;;;;;4918988;29;20404;-77
2021/06/04 02:08:10;;;;;;;12.83;10.70;;;18.10;99.90;;;;;;4918994;29;20574;-76
2021/06/04 02:10:41;;;;;;;13.47;12.03;;;18.20;99.90;;;;;;4918972;29;20801;-77
2021/06/04 02:13:09;;;;;;;13.43;12.00;;;18.10;99.90;;;;;;4918658;29;20415;-77
2021/06/04 02:15:40;;;;;;;11.53;10.50;;;18.10;99.90;;;;;;4918932;29;20409;-76
2021/06/04 02:18:32;;;;;;;14.40;10.90;;;18.00;99.90;;;;;;4918862;29;20890;-76
2021/06/04 02:21:14;;;;;;;10.57;9.57;;;18.00;99.90;;;;;;4918957;29;20510;-76
2021/06/04 02:23:49;;;;;;;9.40;8.50;;;17.90;99.90;;;;;;4918362;29;20470;-77
2021/06/04 02:26:32;;;;;;;10.40;9.30;;;17.90;99.90;;;;;;4918922;29;20407;-76
2021/06/04 02:29:14;;;;;;;11.10;10.00;;;17.90;99.90;;;;;;4918826;29;20497;-77
2021/06/04 02:31:52;;;;;;;12.47;11.17;;;17.90;99.90;;;;;;4918786;29;20418;-78
2021/06/04 02:34:27;;;;;;;12.63;11.43;;;17.80;99.90;;;;;;4918197;29;20517;-75
2021/06/04 02:36:58;;;;;;;11.97;10.80;;;17.80;99.90;;;;;;4918633;29;20393;-77
2021/06/04 02:39:32;;;;;;;11.63;10.47;;;17.80;99.90;;;;;;4917937;29;20764;-76
2021/06/04 02:42:04;;;;;;;12.33;10.50;;;17.70;99.90;;;;;;4918399;29;20828;-76
2021/06/04 02:44:34;;;;;;;10.40;9.40;;;17.70;99.90;;;;;;4918054;29;20441;-78
2021/06/04 02:47:06;;;;;;;13.50;11.43;;;17.60;99.90;;;;;;4918471;29;20405;-77
2021/06/04 02:49:34;;;;;;;12.83;11.63;;;17.50;99.90;;;;;;4917032;29;20434;-76
2021/06/04 02:52:36;;;;;;;11.37;10.37;;;17.40;99.90;;;;;;4918193;29;20740;-77
2021/06/04 02:55:09;;;;;;;14.67;13.27;;;17.40;99.90;;;;;;4917957;29;20438;-77
2021/06/04 02:57:37;;;;;;;12.73;11.40;;;17.30;99.90;;;;;;4918051;29;20877;-76
2021/06/04 03:00:10;;;;;;;11.13;10.03;;;17.30;99.90;;;;;;4918050;29;20426;-76
2021/06/04 03:02:36;;;;;;;12.07;10.97;;;17.30;99.90;;;;;;4917806;29;20901;-78
2021/06/04 03:05:14;;;;;;;12.03;10.83;;;17.40;99.90;;;;;;4916343;29;20458;-77
2021/06/04 03:07:41;;;;;;;10.23;9.33;;;17.40;99.90;;;;;;4917957;29;20421;-76
2021/06/04 03:10:34;;;;;;;14.73;11.60;;;17.40;99.90;;;;;;4917708;29;20426;-78
2021/06/04 03:13:00;;;;;;;12.97;10.83;;;17.40;99.90;;;;;;4916703;29;20816;-78
2021/06/04 03:15:40;;;;;;;16.00;13.07;;;17.40;99.90;;;;;;4917731;29;20433;-78
2021/06/04 03:18:09;;;;;;;12.03;8.57;;;17.40;99.90;;;;;;4917777;29;20193;-77
2021/06/04 03:20:38;;;;;;;10.80;9.80;;;17.40;99.90;;;;;;4917660;29;20509;-77
2021/06/04 03:23:07;;;;;;;11.27;10.07;;;17.30;99.90;;;;;;4917112;29;20470;-77
2021/06/04 03:25:38;;;;;;;12.20;10.10;;;17.30;99.90;;;;;;4917771;29;20400;-77
2021/06/04 03:28:06;;;;;;;15.67;11.40;;;17.30;99.90;;;;;;4917660;29;20385;-76
2021/06/04 03:30:35;;;;;;;11.20;10.10;;;17.30;99.90;;;;;;4917542;29;20457;-76
2021/06/04 03:33:01;;;;;;;14.93;11.97;;;17.30;99.90;;;;;;4917065;29;20930;-78
2021/06/04 03:35:28;;;;;;;12.77;11.43;;;17.30;99.90;;;;;;4917635;29;20446;-77
2021/06/04 03:37:54;;;;;;;12.30;11.10;;;17.30;99.90;;;;;;4917724;29;20531;-78
2021/06/04 03:40:22;;;;;;;12.17;10.90;;;17.30;99.90;;;;;;4917577;29;20426;-77
2021/06/04 03:42:49;;;;;;;12.20;10.80;;;17.20;99.90;;;;;;4917217;29;20450;-78
2021/06/04 03:45:19;;;;;;;10.80;9.87;;;17.10;99.90;;;;;;4917282;29;20415;-77
2021/06/04 03:47:45;;;;;;;11.87;10.67;;;17.10;99.90;;;;;;4917636;29;20427;-76
2021/06/04 03:50:12;;;;;;;10.80;9.80;;;17.00;99.90;;;;;;4917331;29;20422;-79
2021/06/04 03:52:39;;;;;;;12.00;10.90;;;17.00;99.90;;;;;;4916334;29;20190;-78
2021/06/04 03:55:08;;;;;;;12.90;11.60;;;17.00;99.90;;;;;;4916986;29;20549;-76
2021/06/04 03:57:35;;;;;;;12.80;11.03;;;17.00;99.90;;;;;;4917171;29;20430;-77
2021/06/04 04:00:05;;;;;;;12.10;11.00;;;17.00;99.90;;;;;;4917171;29;20806;-76
2021/06/04 04:02:30;;;;;;;11.87;10.83;;;17.00;99.90;;;;;;4916917;29;20907;-76
2021/06/04 04:04:58;;;;;;;12.60;11.33;;;17.00;99.90;;;;;;4916610;29;20545;-77
2021/06/04 04:07:26;;;;;;;13.87;12.53;;;17.00;99.90;;;;;;4916110;29;20197;-75
2021/06/04 04:09:52;;;;;;;13.97;12.50;;;17.00;99.90;;;;;;4917087;29;20785;-76
2021/06/04 04:12:18;;;;;;;13.90;12.60;;;17.00;99.90;;;;;;4917122;29;20425;-76
2021/06/04 04:14:45;;;;;;;13.70;12.13;;;17.00;99.90;;;;;;4916753;29;20998;-77
2021/06/04 04:17:11;;;;;;;12.30;11.00;;;17.00;99.90;;;;;;4917130;29;20400;-75
2021/06/04 04:19:36;;;;;;;12.20;11.10;;;16.90;99.90;;;;;;4916980;29;20430;-77
2021/06/04 04:22:02;;;;;;;14.00;10.67;;;16.90;99.90;;;;;;4915609;29;20799;-77
2021/06/04 04:24:31;;;;;;;13.60;11.83;;;17.00;99.90;;;;;;4916601;29;20205;-77
2021/06/04 04:26:58;;;;;;;13.00;11.80;;;17.10;99.90;;;;;;4917227;29;20170;-77
2021/06/04 04:29:24;;;;;;;13.80;12.33;;;17.10;99.90;;;;;;4916981;29;20389;-77
2021/06/04 04:31:53;;;;;;;11.37;10.37;;;17.10;99.90;;;;;;4917361;29;20705;-77
2021/06/04 04:34:19;;;;;;;12.23;11.13;;;17.10;99.90;;;;;;4916735;29;20448;-76
2021/06/04 04:36:50;;;;;;;12.77;11.57;;;17.10;99.90;;;;;;4917014;29;20425;-77
2021/06/04 04:39:23;;;;;;;14.00;12.70;;;17.20;99.90;;;;;;4916676;29;20902;-77
2021/06/04 04:41:49;;;;;;;12.13;11.03;;;17.30;99.90;;;;;;4916932;29;20406;-76
2021/06/04 04:44:17;;;;;;;12.60;11.43;;;17.20;99.90;;;;;;4916449;29;20863;-77
2021/06/04 04:46:43;;;;;;;14.37;12.87;;;17.20;99.90;;;;;;4916861;29;20414;-77
2021/06/04 04:49:09;;;;;;;12.00;10.90;;;17.20;99.90;;;;;;4916689;29;20482;-77
2021/06/04 04:51:35;;;;;;;11.70;10.70;;;17.20;99.90;;;;;;4916748;29;20237;-78
2021/06/04 04:54:02;;;;;;;13.17;11.97;;;17.20;99.90;;;;;;4916490;29;20202;-77
2021/06/04 04:56:28;;;;;;;13.90;12.60;;;17.30;99.90;;;;;;4916708;29;20479;-77
2021/06/04 04:58:54;;;;;;;13.53;12.23;;;17.40;99.90;;;;;;4916527;29;20457;-77
2021/06/04 05:01:21;;;;;;;14.00;12.23;;;17.30;99.90;;;;;;4916576;29;20217;-77
2021/06/04 05:03:47;;;;;;;12.90;11.53;;;17.20;99.90;;;;;;4918053;29;21006;-77
2021/06/04 05:06:13;;;;;;;16.87;13.27;;;17.20;99.90;;;;;;4920103;29;20393;-77
2021/06/04 05:08:38;;;;;;;14.53;13.00;;;17.30;99.90;;;;;;4920141;29;20182;-77
2021/06/04 05:11:05;;;;;;;13.30;11.90;;;17.50;99.90;;;;;;4919867;29;20763;-79
2021/06/04 05:13:31;;;;;;;14.23;12.83;;;17.70;99.90;;;;;;4919804;29;20268;-78
2021/06/04 05:15:59;;;;;;;14.97;13.20;;;17.70;99.90;;;;;;4920105;29;20428;-76
2021/06/04 05:18:25;;;;;;;14.73;13.13;;;17.80;99.90;;;;;;4920159;29;20426;-75
2021/06/04 05:20:53;;;;;;;13.27;12.07;;;17.90;99.90;;;;;;4920171;29;20953;-76
2021/06/04 05:23:19;;;;;;;13.43;12.07;;;17.90;99.90;;;;;;4919473;29;20445;-76
2021/06/04 05:25:48;;;;;;;13.93;12.60;;;17.80;99.90;;;;;;4919989;29;20421;-78
2021/06/04 05:28:17;;;;;;;12.63;11.53;;;17.70;99.90;;;;;;4919813;29;20422;-77
2021/06/04 05:30:45;;;;;;;14.17;12.77;;;17.80;99.90;;;;;;4919759;29;20930;-77
2021/06/04 05:33:14;;;;;;;13.30;12.00;;;17.90;99.90;;;;;;4919257;29;20487;-76
2021/06/04 05:35:41;;;;;;;13.93;12.40;;;18.10;99.90;;;;;;4919622;29;20762;-76
2021/06/04 05:38:07;;;;;;;14.47;13.10;;;18.20;99.90;;;;;;4919639;29;20430;-75
2021/06/04 05:40:37;;;;;;;14.80;13.40;;;18.30;99.90;;;;;;4919617;29;20437;-76
2021/06/04 05:43:04;;;;;;;14.80;13.40;;;18.30;99.90;;;;;;4919094;29;20533;-78
2021/06/04 05:45:39;;;;;;;14.43;13.13;;;18.40;99.90;;;;;;4919322;29;20418;-77
2021/06/04 05:48:06;;;;;;;12.87;11.67;;;18.50;99.90;;;;;;4919533;29;20426;-79
2021/06/04 05:50:36;;;;;;;14.23;12.87;;;18.60;99.90;;;;;;4918993;29;20783;-76
2021/06/04 05:53:04;;;;;;;15.00;13.60;;;18.70;99.90;;;;;;4917051;29;20436;-76
2021/06/04 05:55:31;;;;;;;16.33;14.70;;;18.80;99.90;;;;;;4918476;29;20429;-76
2021/06/04 05:57:57;;;;;;;32.83;21.60;;;18.80;99.90;;;;;;4919291;29;20916;-78
2021/06/04 06:00:26;;;;;;;25.20;17.30;;;18.80;99.90;;;;;;4919230;29;20439;-76
2021/06/04 06:02:52;;;;;;;19.77;15.53;;;18.80;99.90;;;;;;4917591;29;21533;-76
2021/06/04 06:05:19;;;;;;;24.17;19.40;;;18.90;99.90;;;;;;4918911;29;20469;-78
2021/06/04 06:07:44;;;;;;;23.70;19.83;;;18.90;99.90;;;;;;4918941;29;20426;-78
2021/06/04 06:10:11;;;;;;;28.67;23.60;;;19.00;99.90;;;;;;4918948;29;20426;-78
2021/06/04 06:12:36;;;;;;;33.73;24.60;;;19.00;99.90;;;;;;4918899;29;20190;-79
2021/06/04 06:15:04;;;;;;;35.07;28.13;;;19.00;99.90;;;;;;4917631;29;20446;-78
2021/06/04 06:17:30;;;;;;;32.70;27.80;;;19.10;99.90;;;;;;4918773;29;20282;-78
2021/06/04 06:19:55;;;;;;;36.70;28.30;;;19.30;99.90;;;;;;4918725;29;21318;-78
2021/06/04 06:22:21;;;;;;;33.30;28.00;;;19.30;99.90;;;;;;4918682;29;20210;-79
2021/06/04 06:24:46;;;;;;;33.23;26.53;;;19.30;99.90;;;;;;4918414;29;20202;-78
2021/06/04 06:27:12;;;;;;;33.30;27.07;;;19.30;99.90;;;;;;4918677;29;20182;-78
2021/06/04 06:29:38;;;;;;;32.97;24.30;;;19.50;99.90;;;;;;4918598;29;20182;-78
2021/06/04 06:32:07;;;;;;;29.27;24.07;;;19.70;99.90;;;;;;4918611;29;20213;-78
2021/06/04 06:34:34;;;;;;;34.23;25.17;;;19.60;99.90;;;;;;4917831;29;20194;-78
2021/06/04 06:37:01;;;;;;;26.60;23.03;;;20.00;99.90;;;;;;4918701;29;20422;-77
2021/06/04 06:39:30;;;;;;;30.80;24.67;;;19.90;99.90;;;;;;4919096;29;20449;-76
2021/06/04 06:41:57;;;;;;;30.50;22.80;;;19.80;99.90;;;;;;4918399;29;20456;-77
2021/06/04 06:44:24;;;;;;;27.30;21.73;;;20.20;99.90;;;;;;4918003;29;20442;-77
2021/06/04 06:46:51;;;;;;;35.83;25.03;;;20.40;99.90;;;;;;4918426;29;20767;-77
2021/06/04 06:49:18;;;;;;;30.47;22.70;;;20.60;99.90;;;;;;4918316;29;20443;-78
2021/06/04 06:51:44;;;;;;;31.60;21.83;;;20.70;99.90;;;;;;4916969;29;21003;-77
2021/06/04 06:54:15;;;;;;;26.63;22.03;;;20.90;99.90;;;;;;4932388;29;20947;-77
2021/06/04 06:56:41;;;;;;;33.13;24.50;;;21.00;99.90;;;;;;4918144;29;20424;-77
2021/06/04 06:59:08;;;;;;;33.30;25.00;;;20.90;99.90;;;;;;4918011;29;20450;-77
2021/06/04 07:01:33;;;;;;;32.83;24.87;;;20.80;99.90;;;;;;4918118;29;20420;-78
2021/06/04 07:04:00;;;;;;;33.33;24.20;;;20.90;99.90;;;;;;4917383;29;21007;-78
2021/06/04 07:06:29;;;;;;;36.67;24.37;;;21.00;99.90;;;;;;4917988;29;20183;-77
2021/06/04 07:08:57;;;;;;;31.73;24.07;;;20.90;99.90;;;;;;4918024;29;20418;-77
2021/06/04 07:11:24;;;;;;;30.23;21.83;;;21.00;99.90;;;;;;4917885;29;20414;-76
2021/06/04 07:13:52;;;;;;;38.93;24.83;;;21.30;99.90;;;;;;4917528;29;20942;-77
2021/06/04 07:16:18;;;;;;;33.33;23.17;;;21.40;99.90;;;;;;4917697;29;20427;-77
2021/06/04 07:18:44;;;;;;;36.40;24.87;;;21.60;99.90;;;;;;4917665;29;20433;-77
2021/06/04 07:21:11;;;;;;;31.10;25.10;;;21.60;99.90;;;;;;4917742;29;20426;-77
2021/06/04 07:23:38;;;;;;;32.87;24.80;;;21.30;99.90;;;;;;4917359;29;20586;-76
2021/06/04 07:26:05;;;;;;;34.67;24.80;;;21.40;99.90;;;;;;4932207;29;20927;-77
2021/06/04 07:28:33;;;;;;;31.50;24.13;;;21.70;99.90;;;;;;4918018;29;20418;-76
2021/06/04 07:31:01;;;;;;;30.77;24.90;;;21.60;99.90;;;;;;4918210;29;20422;-77
2021/06/04 07:33:35;;;;;;;28.30;23.30;;;21.40;99.90;;;;;;4916674;29;20446;-77
2021/06/04 07:36:06;;;;;;;26.17;21.93;;;21.70;99.90;;;;;;4917569;29;20933;-77
2021/06/04 07:38:32;;;;;;;32.73;25.30;;;21.80;99.90;;;;;;4916998;29;20421;-77
2021/06/04 07:40:58;;;;;;;30.93;22.57;;;22.00;99.90;;;;;;4917466;29;20430;-76
2021/06/04 07:43:27;;;;;;;31.07;23.33;;;22.10;99.90;;;;;;4917080;29;20214;-76
2021/06/04 07:45:53;;;;;;;29.87;24.13;;;22.20;99.90;;;;;;4917210;29;20445;-76
2021/06/04 07:48:20;;;;;;;31.90;25.00;;;22.10;99.90;;;;;;4917099;29;20426;-78
2021/06/04 07:50:51;;;;;;;28.10;22.27;;;22.00;99.90;;;;;;4917500;29;20437;-77
2021/06/04 07:53:21;;;;;;;27.00;22.00;;;22.20;99.90;;;;;;4915018;29;20430;-78
2021/06/04 07:55:48;;;;;;;29.47;21.53;;;22.30;99.90;;;;;;4916808;29;20505;-77
2021/06/04 07:58:14;;;;;;;26.70;22.10;;;22.60;99.90;;;;;;4917218;29;20417;-78
2021/06/04 08:00:40;;;;;;;26.73;22.37;;;22.30;99.90;;;;;;4916013;29;20426;-77
2021/06/04 08:03:07;;;;;;;33.73;24.33;;;22.30;99.90;;;;;;4916753;29;20958;-77
2021/06/04 08:05:35;;;;;;;29.20;23.07;;;22.50;99.90;;;;;;4917246;29;20711;-76
2021/06/04 08:08:03;;;;;;;29.10;21.97;;;22.70;99.90;;;;;;4917119;29;20446;-77
2021/06/04 08:10:33;;;;;;;33.53;23.43;;;22.70;99.90;;;;;;4916980;29;20422;-76
2021/06/04 08:12:59;;;;;;;28.90;23.07;;;22.70;99.90;;;;;;4916687;29;20418;-77
2021/06/04 08:15:29;;;;;;;30.60;20.07;;;23.10;99.90;;;;;;4916867;29;20444;-78
2021/06/04 08:17:56;;;;;;;24.67;22.00;;;23.40;99.90;;;;;;4917120;29;20418;-77
2021/06/04 08:20:24;;;;;;;26.50;23.10;;;23.50;99.90;;;;;;4916892;29;20418;-77
2021/06/04 08:22:56;;;;;;;23.10;19.83;;;23.30;99.90;;;;;;4916278;29;20501;-77
2021/06/04 08:25:26;;;;;;;30.80;19.67;;;23.50;99.90;;;;;;4916757;29;20422;-78
2021/06/04 08:27:52;;;;;;;23.87;21.20;;;23.90;99.90;;;;;;4917084;29;20865;-76
2021/06/04 08:30:18;;;;;;;23.53;20.67;;;23.80;99.90;;;;;;4917074;29;20447;-75
2021/06/04 08:32:43;;;;;;;25.57;21.77;;;24.00;99.90;;;;;;4916650;29;20182;-79
2021/06/04 08:35:11;;;;;;;28.27;20.83;;;24.10;99.90;;;;;;4916671;29;20444;-78
2021/06/04 08:37:37;;;;;;;26.20;22.00;;;24.50;99.90;;;;;;4917237;29;20515;-77
2021/06/04 08:40:31;;;;;;;23.80;19.57;;;24.50;99.90;;;;;;4920859;29;20433;-75
2021/06/04 08:43:08;;;;;;;21.27;18.83;;;24.40;99.90;;;;;;4914565;29;20556;-77
2021/06/04 08:45:42;;;;;;;22.10;18.57;;;24.30;99.90;;;;;;4920515;29;20497;-77
2021/06/04 08:48:39;;;;;;;20.17;17.50;;;23.40;99.90;;;;;;4920620;29;20425;-76
2021/06/04 08:51:19;;;;;;;20.60;18.37;;;23.60;99.90;;;;;;4920553;29;20826;-76
2021/06/04 08:53:59;;;;;;;22.00;18.20;;;23.80;99.90;;;;;;4920154;29;20504;-77
2021/06/04 08:56:32;;;;;;;21.10;15.87;;;24.20;99.90;;;;;;4920346;29;20887;-77
2021/06/04 08:59:03;;;;;;;20.50;17.03;;;24.30;99.90;;;;;;4920212;29;20795;-77
2021/06/04 09:01:48;;;;;;;22.77;18.53;;;24.70;99.90;;;;;;4920394;29;20442;-76
2021/06/04 09:04:28;;;;;;;20.90;17.87;;;24.80;99.90;;;;;;4919824;29;20469;-76
2021/06/04 09:07:01;;;;;;;19.83;17.73;;;24.70;99.90;;;;;;4920229;29;20440;-77
2021/06/04 09:09:51;;;;;;;18.43;15.43;;;24.80;99.90;;;;;;4920025;29;20523;-76
2021/06/04 09:12:28;;;;;;;18.13;14.60;;;25.00;99.90;;;;;;4934877;29;20418;-78
2021/06/04 09:14:54;;;;;;;13.13;11.60;;;25.30;99.90;;;;;;4919753;29;20425;-78
2021/06/04 09:17:30;;;;;;;14.97;13.10;;;25.50;99.90;;;;;;4934288;29;20504;-76
2021/06/04 09:20:29;;;;;;;17.10;13.60;;;26.00;99.90;;;;;;4919971;29;20193;-75
2021/06/04 09:23:01;;;;;;;13.83;12.33;;;26.20;99.90;;;;;;4919534;29;20573;-78
2021/06/04 09:25:27;;;;;;;15.30;13.70;;;26.90;99.90;;;;;;4919778;29;20426;-76
2021/06/04 09:28:14;;;;;;;16.20;11.63;;;26.90;99.90;;;;;;4919843;29;20505;-77
2021/06/04 09:31:16;;;;;;;14.33;12.80;;;26.90;99.90;;;;;;4919608;29;20798;-76
2021/06/04 09:33:57;;;;;;;15.60;14.00;;;26.70;99.90;;;;;;4919217;29;20437;-76
2021/06/04 09:37:03;;;;;;;15.80;14.30;;;27.00;99.90;;;;;;4919819;29;20402;-77
2021/06/04 09:39:42;;;;;;;12.77;11.47;;;26.30;99.90;;;;;;4861306;29;20432;-75
2021/06/04 09:42:28;;;;;;;15.50;12.90;;;26.90;99.90;;;;;;4912853;29;20875;-75
2021/06/04 09:45:29;;;;;;;19.63;15.10;;;26.90;99.90;;;;;;4919451;29;20429;-76
2021/06/04 09:48:14;;;;;;;18.13;14.80;;;26.20;99.90;;;;;;4888725;29;20435;-78
2021/06/04 09:50:41;;;;;;;15.30;13.57;;;26.30;99.90;;;;;;4919521;29;20780;-77
2021/06/04 09:53:19;;;;;;;15.93;14.30;;;26.60;99.90;;;;;;4918990;29;20414;-76
2021/06/04 09:55:46;;;;;;;20.27;13.40;;;27.40;99.90;;;;;;4919491;29;20792;-79
2021/06/04 09:58:17;;;;;;;16.80;15.10;;;27.70;99.90;;;;;;4921754;29;20422;-77
2021/06/04 10:00:48;;;;;;;15.03;13.37;;;28.00;99.90;;;;;;4919676;29;20441;-77
2021/06/04 10:03:28;;;;;;;16.07;13.90;;;28.10;99.90;;;;;;4918558;29;20891;-77
2021/06/04 10:06:20;;;;;;;16.43;13.70;;;28.40;99.90;;;;;;4919302;29;20451;-78
2021/06/04 10:08:59;;;;;;;16.23;13.50;;;28.00;99.90;;;;;;4892242;29;20491;-76
2021/06/04 10:11:28;;;;;;;16.80;12.73;;;27.90;99.90;;;;;;4918879;29;20931;-76
2021/06/04 10:19:40;;;;;;;17.60;14.33;;;27.50;99.90;;;;;;4919076;29;20462;-76
2021/06/04 10:22:35;;;;;;;14.70;12.60;;;27.70;99.90;;;;;;4918727;29;20920;-74
2021/06/04 10:25:00;;;;;;;16.10;13.20;;;27.80;99.90;;;;;;4916728;29;20986;-75
2021/06/04 10:27:30;;;;;;;16.50;12.13;;;27.20;99.90;;;;;;4918594;29;20423;-78
2021/06/04 10:30:10;;;;;;;12.77;11.57;;;26.90;99.90;;;;;;4917448;29;21083;-77
2021/06/04 10:32:59;;;;;;;13.17;11.63;;;27.30;99.90;;;;;;4918515;29;20419;-76
2021/06/04 10:35:46;;;;;;;13.37;11.97;;;28.00;99.90;;;;;;4918097;29;20458;-76
2021/06/04 10:38:18;;;;;;;12.53;11.33;;;28.10;99.90;;;;;;4918394;29;20419;-77
2021/06/04 10:40:51;;;;;;;12.87;10.27;;;28.20;99.90;;;;;;4918554;29;20481;-74
2021/06/04 10:43:37;;;;;;;13.03;9.80;;;28.40;99.90;;;;;;4917882;29;20526;-76
2021/06/04 10:46:17;;;;;;;12.33;11.13;;;28.60;99.90;;;;;;4918180;29;20493;-75
2021/06/04 10:49:02;;;;;;;12.20;10.67;;;28.70;99.90;;;;;;4918235;29;20478;-77
2021/06/04 10:51:48;;;;;;;10.60;9.70;;;29.30;99.90;;;;;;4918315;29;20418;-76
2021/06/04 10:54:33;;;;;;;15.27;11.13;;;29.60;99.90;;;;;;4917933;29;20517;-76
2021/06/04 10:57:13;;;;;;;14.30;12.77;;;29.70;99.90;;;;;;4918198;29;20417;-77
2021/06/04 10:59:57;;;;;;;14.30;12.77;;;29.40;99.90;;;;;;4918235;29;20499;-77
2021/06/04 11:02:45;;;;;;;12.93;11.50;;;29.60;99.90;;;;;;4917599;29;20469;-76
2021/06/04 11:05:10;;;;;;;14.43;11.37;;;29.80;99.90;;;;;;4917717;29;20450;-76
2021/06/04 11:08:06;;;;;;;11.93;10.80;;;29.80;99.90;;;;;;4917943;29;20421;-77
2021/06/04 11:10:53;;;;;;;11.70;9.67;;;30.90;99.90;;;;;;4917926;29;20174;-78
2021/06/04 11:13:32;;;;;;;11.83;9.23;;;31.60;99.90;;;;;;4917489;29;20425;-77
2021/06/04 11:16:45;;;;;;;15.00;12.53;;;32.50;99.90;;;;;;4917773;29;20446;-76
2021/06/04 11:19:11;;;;;;;12.50;11.00;;;31.30;99.90;;;;;;4866525;29;20420;-75
2021/06/04 11:21:53;;;;;;;12.23;10.97;;;31.60;99.90;;;;;;4917622;29;20900;-75
2021/06/04 11:24:39;;;;;;;12.73;11.40;;;32.00;99.90;;;;;;4917134;29;20240;-76
2021/06/04 11:27:05;;;;;;;11.90;10.70;;;32.30;99.90;;;;;;4917680;29;20414;-76
2021/06/04 11:29:35;;;;;;;13.27;10.13;;;33.00;99.90;;;;;;4917840;29;20418;-78
2021/06/04 11:32:17;;;;;;;14.67;10.00;;;33.40;99.90;;;;;;4917804;29;20220;-75
2021/06/04 11:35:12;;;;;;;11.20;9.30;;;33.80;99.90;;;;;;4917195;29;20473;-77
2021/06/04 11:37:50;;;;;;;11.83;10.70;;;34.00;99.90;;;;;;4917510;29;20407;-78
2021/06/04 11:40:30;;;;;;;10.20;9.17;;;33.70;99.90;;;;;;4917291;29;20418;-78
2021/06/04 11:42:56;;;;;;;10.73;9.63;;;33.80;99.90;;;;;;4917054;29;20466;-78
2021/06/04 11:45:25;;;;;;;11.63;10.43;;;34.30;99.90;;;;;;4917371;29;20430;-77
2021/06/04 11:47:51;;;;;;;13.30;11.93;;;33.80;99.90;;;;;;4917265;29;20177;-76
2021/06/04 11:50:30;;;;;;;11.93;10.83;;;34.00;99.90;;;;;;4917193;29;20414;-77
2021/06/04 11:53:35;;;;;;;10.43;9.53;;;32.80;99.90;;;;;;4916918;29;20497;-76
2021/06/04 11:56:02;;;;;;;15.33;9.03;;;32.60;99.90;;;;;;4916855;29;20426;-75
2021/06/04 11:58:30;;;;;;;9.07;7.80;;;32.10;99.90;;;;;;4917082;29;20538;-76
2021/06/04 12:01:16;;;;;;;9.73;8.80;;;32.30;99.90;;;;;;4917362;29;20442;-78
2021/06/04 12:04:00;;;;;;;12.47;9.43;;;31.50;99.90;;;;;;4916382;29;20869;-73
2021/06/04 12:06:27;;;;;;;12.30;11.03;;;31.20;99.90;;;;;;4916859;29;20505;-74
2021/06/04 12:08:55;;;;;;;12.53;9.07;;;31.20;99.90;;;;;;4917244;29;20873;-76
2021/06/04 12:11:20;;;;;;;12.27;10.73;;;31.10;99.90;;;;;;4916984;29;20440;-74
2021/06/04 12:13:50;;;;;;;10.50;9.50;;;31.00;99.90;;;;;;4915968;29;21006;-77
2021/06/04 12:16:21;;;;;;;10.20;9.20;;;31.10;99.90;;;;;;4916891;29;20182;-76
2021/06/04 12:19:08;;;;;;;13.20;10.60;;;31.00;99.90;;;;;;4916926;29;20835;-76
2021/06/04 12:24:20;;;;;;;11.80;10.70;;;31.00;99.90;;;;;;4916463;29;20500;-76
2021/06/04 12:27:12;;;;;;;11.67;10.60;;;30.80;99.90;;;;;;4916742;29;20410;-77
2021/06/04 12:29:44;;;;;;;13.70;10.40;;;30.50;99.90;;;;;;4916923;29;20406;-78
2021/06/04 12:32:11;;;;;;;15.57;11.53;;;30.50;99.90;;;;;;4916969;29;20414;-77
2021/06/04 12:34:37;;;;;;;12.47;11.27;;;30.10;99.90;;;;;;4916315;29;20442;-77
2021/06/04 12:37:06;;;;;;;12.63;11.40;;;30.10;99.90;;;;;;4916821;29;20792;-75
2021/06/04 12:39:37;;;;;;;13.83;12.47;;;29.90;99.90;;;;;;4931344;29;20430;-76
2021/06/04 12:42:20;;;;;;;13.90;12.50;;;29.80;99.90;;;;;;4917189;29;20485;-77
2021/06/04 12:45:08;;;;;;;14.37;13.00;;;29.50;99.90;;;;;;4916311;29;20441;-79
2021/06/04 12:47:52;;;;;;;16.80;15.10;;;29.40;99.90;;;;;;4916479;29;20551;-77
2021/06/04 12:50:45;;;;;;;14.87;13.00;;;29.20;99.90;;;;;;4916905;29;20878;-77
2021/06/04 12:53:18;;;;;;;16.70;14.83;;;29.40;99.90;;;;;;4916374;29;20886;-76
2021/06/04 12:55:46;;;;;;;15.60;14.00;;;29.10;99.90;;;;;;4916493;29;20417;-76
2021/06/04 12:58:26;;;;;;;15.10;13.40;;;28.60;99.90;;;;;;4916646;29;20422;-76
2021/06/04 13:00:52;;;;;;;16.73;12.77;;;28.40;99.90;;;;;;4915408;29;20422;-77
2021/06/04 13:03:32;;;;;;;17.10;13.53;;;27.50;99.90;;;;;;4915287;29;20468;-75
2021/06/04 13:05:59;;;;;;;16.60;14.90;;;27.20;99.90;;;;;;4920379;29;20651;-76